KIND/IND METAR and TAF weather

Enter ICAO airport designator
Station Type Date Time Source
KIND METAR 2019/02/17 14:54 UTC NOAA

KIND 171454Z 09013KT 9SM -SN OVC019 M02/M06 A2979 RMK AO2 SLP095 P0000 60001 T10221056 58009


Station Type Date Time Source
KIND Decoded METAR 2019/02/17 14:54 UTC NOAA

INDIANAPOLIS INTERNATIONAL AIRPORT , IN, United States (KIND) 39-43N 86-17W 242M
Feb 17, 2019 - 09:54 AM EST / 2019.02.17 1454 UTC
Wind: from the E (090 degrees) at 15 MPH (13 KT):0
Visibility: 9 mile(s):0
Sky conditions: overcast
Weather: light snow
Precipitation last hour: A trace
Temperature: 28.0 F (-2.2 C)
Windchill: 15 F (-9 C):1
Dew Point: 21.9 F (-5.6 C)
Relative Humidity: 77%
Pressure (altimeter): 29.79 in. Hg (1008 hPa)
Pressure tendency: 0.03 inches (0.9 hPa) lower than three hours ago
ob: KIND 171454Z 09013KT 9SM -SN OVC019 M02/M06 A2979 RMK AO2 SLP095 P0000 60001 T10221056 58009
cycle: 15

Station Type Date Time Source
KIND TAF 2019/02/17 15:27 UTC NOAA

TAF
AMD KIND 171524Z 1715/1818 10011KT P6SM VCSH OVC020
FM172100 VRB03KT P6SM VCSH OVC008
FM180000 VRB03KT P6SM OVC007
FM181100 29006KT P6SM OVC010


Example: see airport list